sensor_id;sensor_type;location;lat;lon;timestamp;pressure;altitude;pressure_sealevel;temperature;humidity
33185;BME280;19550;42.872;25.494;2024-02-04T00:02:02;96660.09;;;7.26;100.00
33185;BME280;19550;42.872;25.494;2024-02-04T00:04:29;96659.50;;;7.29;100.00
33185;BME280;19550;42.872;25.494;2024-02-04T00:06:57;96653.56;;;7.40;100.00
33185;BME280;19550;42.872;25.494;2024-02-04T00:09:24;96662.00;;;7.30;100.00
33185;BME280;19550;42.872;25.494;2024-02-04T00:11:53;96660.75;;;7.17;100.00
33185;BME280;19550;42.872;25.494;2024-02-04T00:14:20;96658.78;;;7.18;100.00
33185;BME280;19550;42.872;25.494;2024-02-04T00:16:46;96651.59;;;7.22;100.00
33185;BME280;19550;42.872;25.494;2024-02-04T00:19:15;96650.84;;;7.16;100.00
33185;BME280;19550;42.872;25.494;2024-02-04T00:21:41;96660.22;;;7.15;100.00
33185;BME280;19550;42.872;25.494;2024-02-04T00:24:08;96655.94;;;7.28;100.00
33185;BME280;19550;42.872;25.494;2024-02-04T00:26:35;96650.28;;;7.38;100.00
33185;BME280;19550;42.872;25.494;2024-02-04T00:29:02;96648.25;;;7.49;100.00
33185;BME280;19550;42.872;25.494;2024-02-04T00:31:28;96642.78;;;7.44;100.00
33185;BME280;19550;42.872;25.494;2024-02-04T00:33:55;96638.97;;;7.40;100.00
33185;BME280;19550;42.872;25.494;2024-02-04T00:36:23;96638.75;;;7.36;100.00
33185;BME280;19550;42.872;25.494;2024-02-04T00:38:50;96653.56;;;7.40;100.00
33185;BME280;19550;42.872;25.494;2024-02-04T00:41:17;96654.34;;;7.22;100.00
33185;BME280;19550;42.872;25.494;2024-02-04T00:43:43;96643.78;;;7.05;100.00
33185;BME280;19550;42.872;25.494;2024-02-04T00:46:10;96650.72;;;7.03;100.00
33185;BME280;19550;42.872;25.494;2024-02-04T00:48:37;96661.38;;;7.33;100.00
33185;BME280;19550;42.872;25.494;2024-02-04T00:51:06;96659.69;;;7.37;100.00
33185;BME280;19550;42.872;25.494;2024-02-04T00:53:34;96648.97;;;7.36;100.00
33185;BME280;19550;42.872;25.494;2024-02-04T00:56:02;96644.47;;;7.40;100.00
33185;BME280;19550;42.872;25.494;2024-02-04T00:58:29;96637.75;;;7.51;100.00
33185;BME280;19550;42.872;25.494;2024-02-04T01:00:55;96637.06;;;7.59;100.00
33185;BME280;19550;42.872;25.494;2024-02-04T01:03:22;96636.13;;;7.69;100.00
33185;BME280;19550;42.872;25.494;2024-02-04T01:05:50;96635.16;;;7.78;100.00
33185;BME280;19550;42.872;25.494;2024-02-04T01:08:17;96648.91;;;7.83;100.00
33185;BME280;19550;42.872;25.494;2024-02-04T01:10:45;96645.41;;;7.78;100.00
33185;BME280;19550;42.872;25.494;2024-02-04T01:13:12;96639.47;;;7.66;100.00
33185;BME280;19550;42.872;25.494;2024-02-04T01:15:39;96638.06;;;7.68;100.00
33185;BME280;19550;42.872;25.494;2024-02-04T01:18:05;96636.25;;;7.58;100.00
33185;BME280;19550;42.872;25.494;2024-02-04T01:20:32;96635.75;;;7.56;100.00
33185;BME280;19550;42.872;25.494;2024-02-04T01:22:59;96633.28;;;7.55;100.00
33185;BME280;19550;42.872;25.494;2024-02-04T01:25:26;96618.66;;;7.73;100.00
33185;BME280;19550;42.872;25.494;2024-02-04T01:27:54;96625.34;;;7.91;100.00
33185;BME280;19550;42.872;25.494;2024-02-04T01:30:21;96615.25;;;8.00;99.65
33185;BME280;19550;42.872;25.494;2024-02-04T01:32:47;96615.16;;;8.05;99.79
33185;BME280;19550;42.872;25.494;2024-02-04T01:35:14;96615.94;;;8.11;99.23
33185;BME280;19550;42.872;25.494;2024-02-04T01:37:41;96615.56;;;8.17;98.97
33185;BME280;19550;42.872;25.494;2024-02-04T01:40:10;96600.09;;;8.16;99.01
33185;BME280;19550;42.872;25.494;2024-02-04T01:42:37;96597.50;;;8.06;99.60
33185;BME280;19550;42.872;25.494;2024-02-04T01:45:06;96592.13;;;7.96;100.00
33185;BME280;19550;42.872;25.494;2024-02-04T01:47:33;96597.78;;;8.05;100.00
33185;BME280;19550;42.872;25.494;2024-02-04T01:49:59;96596.53;;;7.97;100.00
33185;BME280;19550;42.872;25.494;2024-02-04T01:52:27;96607.13;;;7.90;100.00
33185;BME280;19550;42.872;25.494;2024-02-04T01:54:54;96605.13;;;7.77;100.00
33185;BME280;19550;42.872;25.494;2024-02-04T01:57:21;96597.56;;;7.64;100.00
33185;BME280;19550;42.872;25.494;2024-02-04T01:59:50;96601.22;;;7.59;100.00
33185;BME280;19550;42.872;25.494;2024-02-04T02:02:20;96590.84;;;7.51;100.00
33185;BME280;19550;42.872;25.494;2024-02-04T02:04:47;96595.09;;;7.43;100.00
33185;BME280;19550;42.872;25.494;2024-02-04T02:07:14;96589.34;;;7.40;100.00
33185;BME280;19550;42.872;25.494;2024-02-04T02:09:42;96588.97;;;7.46;100.00
33185;BME280;19550;42.872;25.494;2024-02-04T02:12:12;96581.72;;;7.32;100.00
33185;BME280;19550;42.872;25.494;2024-02-04T02:14:42;96586.06;;;7.38;100.00
33185;BME280;19550;42.872;25.494;2024-02-04T02:17:12;96579.72;;;7.37;100.00
33185;BME280;19550;42.872;25.494;2024-02-04T02:19:50;96580.22;;;7.39;100.00
33185;BME280;19550;42.872;25.494;2024-02-04T02:22:26;96583.69;;;7.31;100.00
33185;BME280;19550;42.872;25.494;2024-02-04T02:24:57;96579.03;;;7.27;100.00
33185;BME280;19550;42.872;25.494;2024-02-04T02:27:25;96570.22;;;7.25;100.00
33185;BME280;19550;42.872;25.494;2024-02-04T02:29:52;96575.59;;;7.16;100.00
33185;BME280;19550;42.872;25.494;2024-02-04T02:32:19;96575.81;;;7.19;100.00
33185;BME280;19550;42.872;25.494;2024-02-04T02:34:46;96564.22;;;7.41;100.00
33185;BME280;19550;42.872;25.494;2024-02-04T02:37:21;96561.94;;;7.67;100.00
33185;BME280;19550;42.872;25.494;2024-02-04T02:39:52;96558.88;;;7.69;100.00
33185;BME280;19550;42.872;25.494;2024-02-04T02:42:23;96556.31;;;7.72;100.00
33185;BME280;19550;42.872;25.494;2024-02-04T02:44:52;96560.16;;;7.76;100.00
33185;BME280;19550;42.872;25.494;2024-02-04T02:47:21;96556.84;;;7.93;100.00
33185;BME280;19550;42.872;25.494;2024-02-04T02:49:51;96557.13;;;7.91;100.00
33185;BME280;19550;42.872;25.494;2024-02-04T02:52:18;96559.78;;;7.83;100.00
33185;BME280;19550;42.872;25.494;2024-02-04T02:54:44;96566.69;;;7.80;100.00
33185;BME280;19550;42.872;25.494;2024-02-04T02:57:11;96565.50;;;7.86;100.00
33185;BME280;19550;42.872;25.494;2024-02-04T02:59:39;96572.72;;;8.01;100.00
33185;BME280;19550;42.872;25.494;2024-02-04T03:02:06;96566.22;;;7.92;100.00
33185;BME280;19550;42.872;25.494;2024-02-04T03:04:33;96573.94;;;7.95;100.00
33185;BME280;19550;42.872;25.494;2024-02-04T03:07:00;96564.91;;;7.89;100.00
33185;BME280;19550;42.872;25.494;2024-02-04T03:09:26;96556.72;;;7.84;100.00
33185;BME280;19550;42.872;25.494;2024-02-04T03:11:53;96579.03;;;8.20;100.00
33185;BME280;19550;42.872;25.494;2024-02-04T03:14:20;96585.59;;;8.24;100.00
33185;BME280;19550;42.872;25.494;2024-02-04T03:16:48;96574.94;;;8.36;99.21
33185;BME280;19550;42.872;25.494;2024-02-04T03:19:15;96574.13;;;8.36;99.38
33185;BME280;19550;42.872;25.494;2024-02-04T03:21:42;96577.81;;;8.45;98.69
33185;BME280;19550;42.872;25.494;2024-02-04T03:24:08;96581.28;;;8.37;99.56
33185;BME280;19550;42.872;25.494;2024-02-04T03:26:35;96572.94;;;8.23;100.00
33185;BME280;19550;42.872;25.494;2024-02-04T03:29:02;96570.41;;;8.08;100.00
33185;BME280;19550;42.872;25.494;2024-02-04T03:31:31;96576.03;;;8.03;100.00
33185;BME280;19550;42.872;25.494;2024-02-04T03:33:59;96575.94;;;8.08;100.00
33185;BME280;19550;42.872;25.494;2024-02-04T03:36:26;96576.84;;;8.04;100.00
33185;BME280;19550;42.872;25.494;2024-02-04T03:38:53;96580.47;;;7.99;100.00
33185;BME280;19550;42.872;25.494;2024-02-04T03:41:20;96580.03;;;8.11;100.00
33185;BME280;19550;42.872;25.494;2024-02-04T03:43:47;96580.44;;;8.04;100.00
33185;BME280;19550;42.872;25.494;2024-02-04T03:46:16;96570.25;;;7.99;100.00
33185;BME280;19550;42.872;25.494;2024-02-04T03:48:43;96567.25;;;8.15;100.00
33185;BME280;19550;42.872;25.494;2024-02-04T03:51:16;96567.53;;;8.32;99.95
33185;BME280;19550;42.872;25.494;2024-02-04T03:53:43;96567.19;;;8.20;100.00
33185;BME280;19550;42.872;25.494;2024-02-04T03:56:10;96560.94;;;8.47;98.32
33185;BME280;19550;42.872;25.494;2024-02-04T03:58:37;96559.94;;;8.43;98.57
33185;BME280;19550;42.872;25.494;2024-02-04T04:01:04;96561.47;;;8.49;98.04
33185;BME280;19550;42.872;25.494;2024-02-04T04:03:31;96577.38;;;8.38;99.78
33185;BME280;19550;42.872;25.494;2024-02-04T04:05:58;96568.06;;;8.34;100.00
33185;BME280;19550;42.872;25.494;2024-02-04T04:08:26;96557.16;;;8.43;98.34
33185;BME280;19550;42.872;25.494;2024-02-04T04:10:52;96552.69;;;8.28;100.00
33185;BME280;19550;42.872;25.494;2024-02-04T04:13:19;96543.22;;;8.34;99.50
33185;BME280;19550;42.872;25.494;2024-02-04T04:15:46;96540.97;;;8.36;99.53
33185;BME280;19550;42.872;25.494;2024-02-04T04:18:13;96554.09;;;8.25;99.81
33185;BME280;19550;42.872;25.494;2024-02-04T04:20:40;96546.59;;;8.45;98.31
33185;BME280;19550;42.872;25.494;2024-02-04T04:23:07;96553.88;;;8.41;98.80
33185;BME280;19550;42.872;25.494;2024-02-04T04:25:35;96550.94;;;8.51;98.11
33185;BME280;19550;42.872;25.494;2024-02-04T04:28:02;96541.13;;;8.58;97.33
33185;BME280;19550;42.872;25.494;2024-02-04T04:30:29;96538.34;;;8.58;97.44
33185;BME280;19550;42.872;25.494;2024-02-04T04:32:56;96550.88;;;8.69;97.04
33185;BME280;19550;42.872;25.494;2024-02-04T04:35:24;96549.09;;;8.60;97.58
33185;BME280;19550;42.872;25.494;2024-02-04T04:37:51;96553.94;;;8.68;97.13
33185;BME280;19550;42.872;25.494;2024-02-04T04:40:18;96554.94;;;8.72;96.93
33185;BME280;19550;42.872;25.494;2024-02-04T04:42:46;96558.84;;;8.71;97.40
33185;BME280;19550;42.872;25.494;2024-02-04T04:45:13;96568.88;;;8.67;97.86
33185;BME280;19550;42.872;25.494;2024-02-04T04:47:40;96559.59;;;8.76;96.83
33185;BME280;19550;42.872;25.494;2024-02-04T04:50:07;96562.53;;;8.80;97.00
33185;BME280;19550;42.872;25.494;2024-02-04T04:52:34;96559.47;;;8.82;96.77
33185;BME280;19550;42.872;25.494;2024-02-04T04:55:01;96557.41;;;8.73;97.39
33185;BME280;19550;42.872;25.494;2024-02-04T04:57:28;96551.69;;;8.70;97.82
33185;BME280;19550;42.872;25.494;2024-02-04T04:59:56;96561.69;;;8.66;98.26
33185;BME280;19550;42.872;25.494;2024-02-04T05:02:24;96561.09;;;8.69;98.35
33185;BME280;19550;42.872;25.494;2024-02-04T05:04:50;96560.69;;;8.62;98.56
33185;BME280;19550;42.872;25.494;2024-02-04T05:07:17;96558.63;;;8.54;98.85
33185;BME280;19550;42.872;25.494;2024-02-04T05:09:44;96580.31;;;8.60;99.14
33185;BME280;19550;42.872;25.494;2024-02-04T05:12:11;96578.09;;;8.62;99.71
33185;BME280;19550;42.872;25.494;2024-02-04T05:14:39;96584.09;;;8.64;99.51
33185;BME280;19550;42.872;25.494;2024-02-04T05:17:08;96573.06;;;8.64;99.93
33185;BME280;19550;42.872;25.494;2024-02-04T05:19:35;96582.00;;;8.75;98.66
33185;BME280;19550;42.872;25.494;2024-02-04T05:22:02;96590.28;;;8.75;98.92
33185;BME280;19550;42.872;25.494;2024-02-04T05:24:29;96586.69;;;8.74;99.48
33185;BME280;19550;42.872;25.494;2024-02-04T05:26:56;96592.00;;;8.71;99.52
33185;BME280;19550;42.872;25.494;2024-02-04T05:29:23;96599.78;;;8.69;99.72
33185;BME280;19550;42.872;25.494;2024-02-04T05:31:50;96596.22;;;8.68;99.64
33185;BME280;19550;42.872;25.494;2024-02-04T05:34:18;96586.91;;;8.78;99.08
33185;BME280;19550;42.872;25.494;2024-02-04T05:36:45;96588.63;;;8.74;98.86
33185;BME280;19550;42.872;25.494;2024-02-04T05:39:12;96599.78;;;8.69;99.50
33185;BME280;19550;42.872;25.494;2024-02-04T05:41:40;96606.94;;;8.56;100.00
33185;BME280;19550;42.872;25.494;2024-02-04T05:44:07;96590.06;;;8.71;99.25
33185;BME280;19550;42.872;25.494;2024-02-04T05:46:34;96588.31;;;8.62;100.00
33185;BME280;19550;42.872;25.494;2024-02-04T05:49:01;96576.84;;;8.55;100.00
33185;BME280;19550;42.872;25.494;2024-02-04T05:51:31;96579.78;;;8.58;100.00
33185;BME280;19550;42.872;25.494;2024-02-04T05:53:58;96576.53;;;8.56;100.00
33185;BME280;19550;42.872;25.494;2024-02-04T05:56:25;96585.81;;;8.47;100.00
33185;BME280;19550;42.872;25.494;2024-02-04T05:58:51;96569.97;;;8.52;100.00
33185;BME280;19550;42.872;25.494;2024-02-04T06:01:18;96574.22;;;8.45;100.00
33185;BME280;19550;42.872;25.494;2024-02-04T06:03:45;96571.41;;;8.50;100.00
33185;BME280;19550;42.872;25.494;2024-02-04T06:06:14;96579.31;;;8.56;100.00
33185;BME280;19550;42.872;25.494;2024-02-04T06:08:43;96566.38;;;8.52;100.00
33185;BME280;19550;42.872;25.494;2024-02-04T06:11:10;96579.41;;;8.65;100.00
33185;BME280;19550;42.872;25.494;2024-02-04T06:13:39;96576.22;;;8.58;100.00
33185;BME280;19550;42.872;25.494;2024-02-04T06:16:06;96574.69;;;8.65;100.00
33185;BME280;19550;42.872;25.494;2024-02-04T06:18:34;96570.81;;;8.66;100.00
33185;BME280;19550;42.872;25.494;2024-02-04T06:21:03;96571.44;;;8.63;100.00
33185;BME280;19550;42.872;25.494;2024-02-04T06:23:29;96570.38;;;8.59;100.00
33185;BME280;19550;42.872;25.494;2024-02-04T06:25:58;96568.88;;;8.67;100.00
33185;BME280;19550;42.872;25.494;2024-02-04T06:28:25;96576.56;;;8.70;100.00
33185;BME280;19550;42.872;25.494;2024-02-04T06:30:51;96573.41;;;8.76;100.00
33185;BME280;19550;42.872;25.494;2024-02-04T06:33:19;96578.59;;;8.78;100.00
33185;BME280;19550;42.872;25.494;2024-02-04T06:35:46;96581.28;;;8.83;100.00
33185;BME280;19550;42.872;25.494;2024-02-04T06:38:13;96580.19;;;8.84;100.00
33185;BME280;19550;42.872;25.494;2024-02-04T06:40:39;96591.22;;;8.84;100.00
33185;BME280;19550;42.872;25.494;2024-02-04T06:43:07;96584.34;;;8.82;100.00
33185;BME280;19550;42.872;25.494;2024-02-04T06:45:34;96588.13;;;8.86;100.00
33185;BME280;19550;42.872;25.494;2024-02-04T06:48:01;96583.97;;;8.88;100.00
33185;BME280;19550;42.872;25.494;2024-02-04T06:50:28;96583.44;;;8.86;100.00
33185;BME280;19550;42.872;25.494;2024-02-04T06:52:55;96578.44;;;8.88;100.00
33185;BME280;19550;42.872;25.494;2024-02-04T06:55:21;96588.66;;;8.88;100.00
33185;BME280;19550;42.872;25.494;2024-02-04T06:57:48;96581.78;;;8.85;100.00
33185;BME280;19550;42.872;25.494;2024-02-04T07:00:17;96585.38;;;8.86;100.00
33185;BME280;19550;42.872;25.494;2024-02-04T07:02:43;96584.06;;;8.83;100.00
33185;BME280;19550;42.872;25.494;2024-02-04T07:05:10;96590.28;;;8.75;100.00
33185;BME280;19550;42.872;25.494;2024-02-04T07:07:37;96589.47;;;8.88;100.00
33185;BME280;19550;42.872;25.494;2024-02-04T07:10:05;96594.72;;;8.90;100.00
33185;BME280;19550;42.872;25.494;2024-02-04T07:12:32;96596.97;;;8.88;100.00
33185;BME280;19550;42.872;25.494;2024-02-04T07:14:59;96608.72;;;8.93;100.00
33185;BME280;19550;42.872;25.494;2024-02-04T07:17:27;96602.59;;;8.96;99.83
33185;BME280;19550;42.872;25.494;2024-02-04T07:19:54;96606.25;;;8.92;100.00
33185;BME280;19550;42.872;25.494;2024-02-04T07:22:21;96604.03;;;8.94;100.00
33185;BME280;19550;42.872;25.494;2024-02-04T07:24:48;96605.28;;;9.01;99.19
33185;BME280;19550;42.872;25.494;2024-02-04T07:27:14;96618.28;;;9.01;100.00
33185;BME280;19550;42.872;25.494;2024-02-04T07:29:41;96607.09;;;9.06;99.15
33185;BME280;19550;42.872;25.494;2024-02-04T07:32:08;96617.34;;;9.05;98.74
33185;BME280;19550;42.872;25.494;2024-02-04T07:34:36;96615.22;;;9.02;99.18
33185;BME280;19550;42.872;25.494;2024-02-04T07:37:03;96607.94;;;9.06;98.98
33185;BME280;19550;42.872;25.494;2024-02-04T07:39:33;96613.75;;;9.05;98.58
33185;BME280;19550;42.872;25.494;2024-02-04T07:41:59;96602.69;;;9.05;98.19
33185;BME280;19550;42.872;25.494;2024-02-04T07:44:27;96613.25;;;9.03;98.21
33185;BME280;19550;42.872;25.494;2024-02-04T07:46:53;96612.53;;;8.97;98.49
33185;BME280;19550;42.872;25.494;2024-02-04T07:49:20;96603.31;;;9.02;98.01
33185;BME280;19550;42.872;25.494;2024-02-04T07:51:49;96602.69;;;9.05;97.79
33185;BME280;19550;42.872;25.494;2024-02-04T07:54:15;96598.81;;;9.06;98.05
33185;BME280;19550;42.872;25.494;2024-02-04T07:56:42;96611.63;;;9.02;98.77
33185;BME280;19550;42.872;25.494;2024-02-04T07:59:09;96603.09;;;8.98;98.45
33185;BME280;19550;42.872;25.494;2024-02-04T08:01:36;96599.75;;;9.01;99.06
33185;BME280;19550;42.872;25.494;2024-02-04T08:04:03;96605.66;;;8.95;99.00
33185;BME280;19550;42.872;25.494;2024-02-04T08:06:31;96607.81;;;8.98;98.74
33185;BME280;19550;42.872;25.494;2024-02-04T08:09:01;96599.22;;;8.99;98.65
33185;BME280;19550;42.872;25.494;2024-02-04T08:11:29;96596.75;;;8.98;98.69
33185;BME280;19550;42.872;25.494;2024-02-04T08:13:56;96600.84;;;9.00;98.19
33185;BME280;19550;42.872;25.494;2024-02-04T08:16:22;96600.25;;;9.03;98.56
33185;BME280;19550;42.872;25.494;2024-02-04T08:18:50;96588.69;;;9.01;97.90
33185;BME280;19550;42.872;25.494;2024-02-04T08:21:17;96590.50;;;9.06;97.85
33185;BME280;19550;42.872;25.494;2024-02-04T08:23:44;96586.44;;;9.03;97.89
33185;BME280;19550;42.872;25.494;2024-02-04T08:26:12;96606.38;;;9.00;98.18
33185;BME280;19550;42.872;25.494;2024-02-04T08:28:39;96595.75;;;9.07;98.11
33185;BME280;19550;42.872;25.494;2024-02-04T08:31:06;96599.75;;;9.01;98.12
33185;BME280;19550;42.872;25.494;2024-02-04T08:33:33;96604.16;;;9.02;98.02
33185;BME280;19550;42.872;25.494;2024-02-04T08:35:59;96606.50;;;9.09;98.21
33185;BME280;19550;42.872;25.494;2024-02-04T08:38:26;96616.03;;;9.16;97.20
33185;BME280;19550;42.872;25.494;2024-02-04T08:40:53;96619.63;;;9.17;97.29
33185;BME280;19550;42.872;25.494;2024-02-04T08:43:21;96615.53;;;9.28;96.64
33185;BME280;19550;42.872;25.494;2024-02-04T08:45:48;96610.81;;;9.29;96.06
33185;BME280;19550;42.872;25.494;2024-02-04T08:48:14;96614.28;;;9.34;96.36
33185;BME280;19550;42.872;25.494;2024-02-04T08:50:41;96614.00;;;9.36;95.50
33185;BME280;19550;42.872;25.494;2024-02-04T08:53:08;96611.41;;;9.39;95.30
33185;BME280;19550;42.872;25.494;2024-02-04T08:55:35;96619.31;;;9.46;94.53
33185;BME280;19550;42.872;25.494;2024-02-04T08:58:02;96636.44;;;9.48;95.78
33185;BME280;19550;42.872;25.494;2024-02-04T09:00:30;96621.88;;;9.56;94.98
33185;BME280;19550;42.872;25.494;2024-02-04T09:02:57;96633.44;;;9.58;94.99
33185;BME280;19550;42.872;25.494;2024-02-04T09:05:23;96630.38;;;9.60;94.78
33185;BME280;19550;42.872;25.494;2024-02-04T09:07:50;96636.94;;;9.64;94.88
33185;BME280;19550;42.872;25.494;2024-02-04T09:10:17;96641.66;;;9.63;94.76
33185;BME280;19550;42.872;25.494;2024-02-04T09:12:44;96630.88;;;9.62;93.73
33185;BME280;19550;42.872;25.494;2024-02-04T09:15:10;96629.66;;;9.68;93.34
33185;BME280;19550;42.872;25.494;2024-02-04T09:17:39;96616.94;;;9.67;92.75
33185;BME280;19550;42.872;25.494;2024-02-04T09:20:06;96627.88;;;9.72;92.81
33185;BME280;19550;42.872;25.494;2024-02-04T09:22:33;96621.44;;;9.76;92.88
33185;BME280;19550;42.872;25.494;2024-02-04T09:25:01;96615.91;;;9.76;94.02
33185;BME280;19550;42.872;25.494;2024-02-04T09:27:27;96618.25;;;9.83;92.51
33185;BME280;19550;42.872;25.494;2024-02-04T09:29:55;96614.03;;;9.85;93.86
33185;BME280;19550;42.872;25.494;2024-02-04T09:32:21;96606.63;;;9.94;92.79
33185;BME280;19550;42.872;25.494;2024-02-04T09:34:50;96608.69;;;10.03;92.04
33185;BME280;19550;42.872;25.494;2024-02-04T09:37:17;96617.16;;;10.06;91.71
33185;BME280;19550;42.872;25.494;2024-02-04T09:39:44;96623.72;;;10.10;90.73
33185;BME280;19550;42.872;25.494;2024-02-04T09:42:19;96614.25;;;10.11;91.17
33185;BME280;19550;42.872;25.494;2024-02-04T09:44:46;96611.63;;;10.20;91.50
33185;BME280;19550;42.872;25.494;2024-02-04T09:47:13;96614.25;;;10.25;90.46
33185;BME280;19550;42.872;25.494;2024-02-04T09:49:40;96617.53;;;10.27;90.59
33185;BME280;19550;42.872;25.494;2024-02-04T09:52:09;96622.78;;;10.28;89.88
33185;BME280;19550;42.872;25.494;2024-02-04T09:54:40;96606.06;;;10.20;90.18
33185;BME280;19550;42.872;25.494;2024-02-04T09:57:09;96624.94;;;10.18;91.11
33185;BME280;19550;42.872;25.494;2024-02-04T09:59:36;96617.84;;;10.12;90.41
33185;BME280;19550;42.872;25.494;2024-02-04T10:02:03;96619.31;;;10.09;91.53
33185;BME280;19550;42.872;25.494;2024-02-04T10:04:31;96611.63;;;10.06;91.36
33185;BME280;19550;42.872;25.494;2024-02-04T10:06:57;96610.63;;;10.02;91.47
33185;BME280;19550;42.872;25.494;2024-02-04T10:09:26;96614.69;;;10.05;91.81
33185;BME280;19550;42.872;25.494;2024-02-04T10:11:53;96616.22;;;10.11;92.12
33185;BME280;19550;42.872;25.494;2024-02-04T10:14:19;96605.47;;;10.23;91.01
33185;BME280;19550;42.872;25.494;2024-02-04T10:16:46;96619.09;;;10.19;91.58
33185;BME280;19550;42.872;25.494;2024-02-04T10:19:13;96608.84;;;10.20;91.67
33185;BME280;19550;42.872;25.494;2024-02-04T10:21:40;96616.72;;;10.26;91.40
33185;BME280;19550;42.872;25.494;2024-02-04T10:24:08;96614.94;;;10.30;90.85
33185;BME280;19550;42.872;25.494;2024-02-04T10:26:37;96619.75;;;10.39;88.45
33185;BME280;19550;42.872;25.494;2024-02-04T10:29:06;96624.38;;;10.43;88.14
33185;BME280;19550;42.872;25.494;2024-02-04T10:31:33;96620.72;;;10.56;88.97
33185;BME280;19550;42.872;25.494;2024-02-04T10:34:00;96611.13;;;10.62;89.38
33185;BME280;19550;42.872;25.494;2024-02-04T10:36:30;96592.03;;;10.61;89.23
33185;BME280;19550;42.872;25.494;2024-02-04T10:38:57;96595.94;;;10.60;88.65
33185;BME280;19550;42.872;25.494;2024-02-04T10:41:25;96593.81;;;10.57;88.94
33185;BME280;19550;42.872;25.494;2024-02-04T10:43:54;96604.41;;;10.55;89.29
33185;BME280;19550;42.872;25.494;2024-02-04T10:46:22;96598.03;;;10.54;87.38
33185;BME280;19550;42.872;25.494;2024-02-04T10:48:55;96588.06;;;10.53;87.38
33185;BME280;19550;42.872;25.494;2024-02-04T10:51:24;96593.63;;;10.53;88.03
33185;BME280;19550;42.872;25.494;2024-02-04T10:53:54;96595.41;;;10.49;87.23
33185;BME280;19550;42.872;25.494;2024-02-04T10:56:29;96590.97;;;10.48;87.86
33185;BME280;19550;42.872;25.494;2024-02-04T10:58:58;96587.09;;;10.49;86.98
33185;BME280;19550;42.872;25.494;2024-02-04T11:01:29;96577.97;;;10.57;88.11
33185;BME280;19550;42.872;25.494;2024-02-04T11:03:58;96575.91;;;10.63;86.35
33185;BME280;19550;42.872;25.494;2024-02-04T11:06:26;96566.66;;;10.67;86.76
33185;BME280;19550;42.872;25.494;2024-02-04T11:08:53;96573.75;;;10.82;86.21
33185;BME280;19550;42.872;25.494;2024-02-04T11:11:23;96567.91;;;10.92;86.41
33185;BME280;19550;42.872;25.494;2024-02-04T11:13:56;96573.31;;;10.97;84.81
33185;BME280;19550;42.872;25.494;2024-02-04T11:16:33;96578.97;;;11.14;84.78
33185;BME280;19550;42.872;25.494;2024-02-04T11:19:15;96575.22;;;11.19;84.53
33185;BME280;19550;42.872;25.494;2024-02-04T11:22:10;96584.31;;;11.11;85.50
33185;BME280;19550;42.872;25.494;2024-02-04T11:25:06;96567.31;;;11.04;85.01
33185;BME280;19550;42.872;25.494;2024-02-04T11:27:39;96572.19;;;10.98;85.14
33185;BME280;19550;42.872;25.494;2024-02-04T11:30:07;96582.00;;;11.04;85.10
33185;BME280;19550;42.872;25.494;2024-02-04T11:32:36;96573.09;;;11.16;84.43
33185;BME280;19550;42.872;25.494;2024-02-04T11:35:05;96579.41;;;11.08;84.18
33185;BME280;19550;42.872;25.494;2024-02-04T11:37:34;96566.53;;;11.03;85.38
33185;BME280;19550;42.872;25.494;2024-02-04T11:40:03;96568.47;;;11.03;84.99
33185;BME280;19550;42.872;25.494;2024-02-04T11:42:31;96564.53;;;11.04;86.10
33185;BME280;19550;42.872;25.494;2024-02-04T11:45:08;96572.41;;;11.10;85.04
33185;BME280;19550;42.872;25.494;2024-02-04T11:47:38;96567.09;;;11.23;84.50
33185;BME280;19550;42.872;25.494;2024-02-04T11:50:06;96563.97;;;11.24;83.90
33185;BME280;19550;42.872;25.494;2024-02-04T11:52:34;96554.38;;;11.39;83.91
33185;BME280;19550;42.872;25.494;2024-02-04T11:55:01;96557.44;;;11.20;83.82
33185;BME280;19550;42.872;25.494;2024-02-04T11:57:29;96550.09;;;11.24;84.86
33185;BME280;19550;42.872;25.494;2024-02-04T11:59:57;96547.81;;;11.26;84.61
33185;BME280;19550;42.872;25.494;2024-02-04T12:02:24;96542.81;;;11.45;84.67
33185;BME280;19550;42.872;25.494;2024-02-04T12:04:53;96542.91;;;11.80;82.29
33185;BME280;19550;42.872;25.494;2024-02-04T12:07:21;96537.38;;;12.14;81.22
33185;BME280;19550;42.872;25.494;2024-02-04T12:09:48;96519.00;;;12.65;79.13
33185;BME280;19550;42.872;25.494;2024-02-04T12:12:15;96528.63;;;12.76;77.68
33185;BME280;19550;42.872;25.494;2024-02-04T12:14:45;96505.69;;;12.79;76.50
33185;BME280;19550;42.872;25.494;2024-02-04T12:17:12;96528.47;;;12.64;76.40
33185;BME280;19550;42.872;25.494;2024-02-04T12:19:40;96547.66;;;12.40;77.50
33185;BME280;19550;42.872;25.494;2024-02-04T12:22:08;96531.63;;;12.37;77.79
33185;BME280;19550;42.872;25.494;2024-02-04T12:24:36;96537.53;;;12.18;78.09
33185;BME280;19550;42.872;25.494;2024-02-04T12:27:04;96531.66;;;12.28;79.08
33185;BME280;19550;42.872;25.494;2024-02-04T12:29:31;96540.81;;;12.11;78.39
33185;BME280;19550;42.872;25.494;2024-02-04T12:31:59;96543.09;;;11.75;79.45
33185;BME280;19550;42.872;25.494;2024-02-04T12:34:26;96546.94;;;11.65;80.68
33185;BME280;19550;42.872;25.494;2024-02-04T12:36:57;96543.81;;;11.49;81.12
33185;BME280;19550;42.872;25.494;2024-02-04T12:39:26;96547.38;;;11.41;82.33
33185;BME280;19550;42.872;25.494;2024-02-04T12:41:53;96536.59;;;11.40;82.50
33185;BME280;19550;42.872;25.494;2024-02-04T12:44:20;96522.75;;;11.48;83.56
33185;BME280;19550;42.872;25.494;2024-02-04T12:46:50;96530.53;;;11.38;83.06
33185;BME280;19550;42.872;25.494;2024-02-04T12:49:25;96516.19;;;11.36;82.49
33185;BME280;19550;42.872;25.494;2024-02-04T12:51:52;96520.25;;;11.30;81.86
33185;BME280;19550;42.872;25.494;2024-02-04T12:54:21;96513.91;;;11.29;82.61
33185;BME280;19550;42.872;25.494;2024-02-04T12:56:50;96531.31;;;11.21;83.08